M/V Tuna — XUGC9 — position and weather

sailwx.info

Track history (hours):
 
Tides and Currents Weather Stations Pressure Air Temp Water Temp Dewpoint Dewpoint Depression Visibility Wind Speed Wind Dir Waves Ship Positions

M/V Tuna

Last reported at 2016-Jul-20 23:12 UTC. Time now 2016-Jul-26 17:55 UTC.
Position N 46°14' E 030°45'.

Length 114 m; draft 2.4 m.

Type: Cargo ship. MMSI: 514778000.

Date/timePositionNaut miles runAvg speedWind from/ knotsBaromVisibWave heightAir tempDewpointWater temp
2016-Jul-20 23:12N 46°14' E 030°45'0 0.0
2016-Jul-20 22:33N 46°14' E 030°45'0 0.0
2016-Jul-20 21:33N 46°14' E 030°45'0 0.0
2016-Jul-20 20:33N 46°14' E 030°45'0 0.1
2016-Jul-20 19:33N 46°14' E 030°45'0 0.0
2016-Jul-20 18:33N 46°14' E 030°45'0 0.0
2016-Jul-20 17:30N 46°14' E 030°45'0 0.0
2016-Jul-20 16:33N 46°14' E 030°45'0 0.0
2016-Jul-20 15:33N 46°14' E 030°45'0 0.0
2016-Jul-20 14:33N 46°14' E 030°45'0 0.0
2016-Jul-20 13:33N 46°14' E 030°45'0 0.0
2016-Jul-20 12:33N 46°14' E 030°45'0 0.1
2016-Jul-20 11:33N 46°14' E 030°45'0 0.0
2016-Jul-20 10:33N 46°14' E 030°45'0 0.0
2016-Jul-20 09:33N 46°14' E 030°45'0 0.0
2016-Jul-20 08:33N 46°14' E 030°45'0 0.0
2016-Jul-20 07:33N 46°14' E 030°45'0 0.0
2016-Jul-20 06:33N 46°14' E 030°45'0 0.0
2016-Jul-20 05:33N 46°14' E 030°45'0 0.0
2016-Jul-20 04:33N 46°14' E 030°45'0 0.0
2016-Jul-20 03:33N 46°14' E 030°45'0 0.0
2016-Jul-20 02:33N 46°14' E 030°45'0 0.0
2016-Jul-20 01:33N 46°14' E 030°45'0 0.0
2016-Jul-20 00:32N 46°14' E 030°45'0 0.0
2016-Jul-19 23:32N 46°14' E 030°45'0 0.0
2016-Jul-19 22:32N 46°14' E 030°45'0 0.0
2016-Jul-19 21:29N 46°14' E 030°45'0 0.0
2016-Jul-19 20:32N 46°14' E 030°45'0 0.0
2016-Jul-19 15:29N 46°14' E 030°45'0 0.0
2016-Jul-19 14:33N 46°14' E 030°45'0 0.0
2016-Jul-19 13:33N 46°14' E 030°45'0 0.0
2016-Jul-19 12:33N 46°14' E 030°45'0 0.0
2016-Jul-19 11:34N 46°14' E 030°45'0 0.0
2016-Jul-19 10:34N 46°14' E 030°45'0 0.0
2016-Jul-19 09:34N 46°14' E 030°45'0 0.0
2016-Jul-19 08:33N 46°14' E 030°45'0 0.0
2016-Jul-19 07:34N 46°14' E 030°45'0 0.0
2016-Jul-19 04:34N 46°14' E 030°45'0 0.0
2016-Jul-19 03:34N 46°14' E 030°45'0 0.0
2016-Jul-19 02:34N 46°14' E 030°45'0 0.0
2016-Jul-19 01:34N 46°14' E 030°45'0 0.0
2016-Jul-19 00:34N 46°14' E 030°45'0 0.0
2016-Jul-18 23:34N 46°14' E 030°45'0 0.0
2016-Jul-18 22:34N 46°14' E 030°45'0 0.0
2016-Jul-18 21:34N 46°14' E 030°45'0 0.0
2016-Jul-18 20:33N 46°14' E 030°45'0 0.0
2016-Jul-18 19:33N 46°14' E 030°45'0 0.0
2016-Jul-18 18:33N 46°14' E 030°45'0 0.0
2016-Jul-18 00:27N 46°14' E 030°45'0 0.0
2016-Jul-17 15:30N 46°14' E 030°45'0 0.0
2016-Jul-17 14:33N 46°14' E 030°45'0 0.0
2016-Jul-17 13:33N 46°14' E 030°45'0 0.0
2016-Jul-17 12:31N 46°14' E 030°45'0 0.0
2016-Jul-17 11:31N 46°14' E 030°45'0 0.0
2016-Jul-17 10:31N 46°14' E 030°45'0 0.0
2016-Jul-17 09:31N 46°14' E 030°45'0 0.0
2016-Jul-17 08:31N 46°14' E 030°45'0 0.0
2016-Jul-17 07:31N 46°14' E 030°44'0 0.0
2016-Jul-17 06:31N 46°14' E 030°44'0 0.0
2016-Jul-17 04:34N 46°14' E 030°44'0 0.0
2016-Jul-17 03:33N 46°14' E 030°44'0 0.0
2016-Jul-17 02:33N 46°14' E 030°44'0 0.0
2016-Jul-17 01:33N 46°14' E 030°44'0 0.1
2016-Jul-17 00:33N 46°14' E 030°45'0 0.0
2016-Jul-16 23:33N 46°14' E 030°45'0 0.0
2016-Jul-16 22:33N 46°14' E 030°45'0 0.0
2016-Jul-16 21:33N 46°14' E 030°45'0 0.0
2016-Jul-16 20:33N 46°14' E 030°45'0 0.0
2016-Jul-16 19:33N 46°14' E 030°45'0 0.1
2016-Jul-16 18:31N 46°14' E 030°44'5 5.0
2016-Jul-16 17:33N 46°11' E 030°39'7 7.0
2016-Jul-16 16:32N 46°05' E 030°34'10 7.0
2016-Jul-16 15:09N 45°56' E 030°27'4 7.3
2016-Jul-16 14:33N 45°53' E 030°24'7 7.1
2016-Jul-16 13:32N 45°47' E 030°18'7 7.2
2016-Jul-16 12:33N 45°41' E 030°13'  
Track history (hours):
 
Tides and Currents Weather Stations Pressure Air Temp Water Temp Dewpoint Dewpoint Depression Visibility Wind Speed Wind Dir Waves Ship Positions

M/V Tuna

Last reported at 2016-Jul-20 23:12 UTC. Time now 2016-Jul-26 17:55 UTC.
Position N 46°14' E 030°45'.

Length 114 m; draft 2.4 m.

Type: Cargo ship. MMSI: 514778000.

Date/timePositionNaut miles runAvg speedWind from/ knotsBaromVisibWave heightAir tempDewpointWater temp
2016-Jul-20 23:12N 46°14' E 030°45'0 0.0
2016-Jul-20 22:33N 46°14' E 030°45'0 0.0
2016-Jul-20 21:33N 46°14' E 030°45'0 0.0
2016-Jul-20 20:33N 46°14' E 030°45'0 0.1
2016-Jul-20 19:33N 46°14' E 030°45'0 0.0
2016-Jul-20 18:33N 46°14' E 030°45'0 0.0
2016-Jul-20 17:30N 46°14' E 030°45'0 0.0
2016-Jul-20 16:33N 46°14' E 030°45'0 0.0
2016-Jul-20 15:33N 46°14' E 030°45'0 0.0
2016-Jul-20 14:33N 46°14' E 030°45'0 0.0
2016-Jul-20 13:33N 46°14' E 030°45'0 0.0
2016-Jul-20 12:33N 46°14' E 030°45'0 0.1
2016-Jul-20 11:33N 46°14' E 030°45'0 0.0
2016-Jul-20 10:33N 46°14' E 030°45'0 0.0
2016-Jul-20 09:33N 46°14' E 030°45'0 0.0
2016-Jul-20 08:33N 46°14' E 030°45'0 0.0
2016-Jul-20 07:33N 46°14' E 030°45'0 0.0
2016-Jul-20 06:33N 46°14' E 030°45'0 0.0
2016-Jul-20 05:33N 46°14' E 030°45'0 0.0
2016-Jul-20 04:33N 46°14' E 030°45'0 0.0
2016-Jul-20 03:33N 46°14' E 030°45'0 0.0
2016-Jul-20 02:33N 46°14' E 030°45'0 0.0
2016-Jul-20 01:33N 46°14' E 030°45'0 0.0
2016-Jul-20 00:32N 46°14' E 030°45'0 0.0
2016-Jul-19 23:32N 46°14' E 030°45'0 0.0
2016-Jul-19 22:32N 46°14' E 030°45'0 0.0
2016-Jul-19 21:29N 46°14' E 030°45'0 0.0
2016-Jul-19 20:32N 46°14' E 030°45'0 0.0
2016-Jul-19 15:29N 46°14' E 030°45'0 0.0
2016-Jul-19 14:33N 46°14' E 030°45'0 0.0
2016-Jul-19 13:33N 46°14' E 030°45'0 0.0
2016-Jul-19 12:33N 46°14' E 030°45'0 0.0
2016-Jul-19 11:34N 46°14' E 030°45'0 0.0
2016-Jul-19 10:34N 46°14' E 030°45'0 0.0
2016-Jul-19 09:34N 46°14' E 030°45'0 0.0
2016-Jul-19 08:33N 46°14' E 030°45'0 0.0
2016-Jul-19 07:34N 46°14' E 030°45'0 0.0
2016-Jul-19 04:34N 46°14' E 030°45'0 0.0
2016-Jul-19 03:34N 46°14' E 030°45'0 0.0
2016-Jul-19 02:34N 46°14' E 030°45'0 0.0
2016-Jul-19 01:34N 46°14' E 030°45'0 0.0
2016-Jul-19 00:34N 46°14' E 030°45'0 0.0
2016-Jul-18 23:34N 46°14' E 030°45'0 0.0
2016-Jul-18 22:34N 46°14' E 030°45'0 0.0
2016-Jul-18 21:34N 46°14' E 030°45'0 0.0
2016-Jul-18 20:33N 46°14' E 030°45'0 0.0
2016-Jul-18 19:33N 46°14' E 030°45'0 0.0
2016-Jul-18 18:33N 46°14' E 030°45'0 0.0
2016-Jul-18 00:27N 46°14' E 030°45'0 0.0
2016-Jul-17 15:30N 46°14' E 030°45'0 0.0
2016-Jul-17 14:33N 46°14' E 030°45'0 0.0
2016-Jul-17 13:33N 46°14' E 030°45'0 0.0
2016-Jul-17 12:31N 46°14' E 030°45'0 0.0
2016-Jul-17 11:31N 46°14' E 030°45'0 0.0
2016-Jul-17 10:31N 46°14' E 030°45'0 0.0
2016-Jul-17 09:31N 46°14' E 030°45'0 0.0
2016-Jul-17 08:31N 46°14' E 030°45'0 0.0
2016-Jul-17 07:31N 46°14' E 030°44'0 0.0
2016-Jul-17 06:31N 46°14' E 030°44'0 0.0
2016-Jul-17 04:34N 46°14' E 030°44'0 0.0
2016-Jul-17 03:33N 46°14' E 030°44'0 0.0
2016-Jul-17 02:33N 46°14' E 030°44'0 0.0
2016-Jul-17 01:33N 46°14' E 030°44'0 0.1
2016-Jul-17 00:33N 46°14' E 030°45'0 0.0
2016-Jul-16 23:33N 46°14' E 030°45'0 0.0
2016-Jul-16 22:33N 46°14' E 030°45'0 0.0
2016-Jul-16 21:33N 46°14' E 030°45'0 0.0
2016-Jul-16 20:33N 46°14' E 030°45'0 0.0
2016-Jul-16 19:33N 46°14' E 030°45'0 0.1
2016-Jul-16 18:31N 46°14' E 030°44'5 5.0
2016-Jul-16 17:33N 46°11' E 030°39'7 7.0
2016-Jul-16 16:32N 46°05' E 030°34'10 7.0
2016-Jul-16 15:09N 45°56' E 030°27'4 7.3
2016-Jul-16 14:33N 45°53' E 030°24'7 7.1
2016-Jul-16 13:32N 45°47' E 030°18'7 7.2
2016-Jul-16 12:33N 45°41' E 030°13'  

Dump ship's entire track history